sensor_id;sensor_type;location;lat;lon;timestamp;pressure;altitude;pressure_sealevel;temperature;humidity
62980;BME280;49075;53.988;27.678;2022-07-29T00:00:55;990.9;;;13.5;65.9
62980;BME280;49075;53.988;27.678;2022-07-29T00:05:55;990.9;;;13.6;65.8
62980;BME280;49075;53.988;27.678;2022-07-29T00:10:55;990.9;;;13.6;65.8
62980;BME280;49075;53.988;27.678;2022-07-29T00:15:55;990.9;;;13.6;66
62980;BME280;49075;53.988;27.678;2022-07-29T00:20:55;990.9;;;13.5;66.1
62980;BME280;49075;53.988;27.678;2022-07-29T00:25:55;990.9;;;13.4;66.8
62980;BME280;49075;53.988;27.678;2022-07-29T00:30:55;990.9;;;13.3;66.8
62980;BME280;49075;53.988;27.678;2022-07-29T00:35:55;991;;;13.3;67.1
62980;BME280;49075;53.988;27.678;2022-07-29T00:40:55;991;;;13.2;67.8
62980;BME280;49075;53.988;27.678;2022-07-29T00:45:55;991;;;13.2;67.6
62980;BME280;49075;53.988;27.678;2022-07-29T00:50:56;990.9;;;13.3;67.7
62980;BME280;49075;53.988;27.678;2022-07-29T00:55:56;990.9;;;13.4;67.6
62980;BME280;49075;53.988;27.678;2022-07-29T01:00:55;990.9;;;13.5;67.6
62980;BME280;49075;53.988;27.678;2022-07-29T01:05:55;990.9;;;13.5;67.8
62980;BME280;49075;53.988;27.678;2022-07-29T01:10:55;990.9;;;13.5;67.7
62980;BME280;49075;53.988;27.678;2022-07-29T01:16:05;990.9;;;13.6;68.1
62980;BME280;49075;53.988;27.678;2022-07-29T01:21:35;990.9;;;13.6;68
62980;BME280;49075;53.988;27.678;2022-07-29T01:26:00;990.9;;;13.5;68.3
62980;BME280;49075;53.988;27.678;2022-07-29T01:30:55;990.9;;;13.4;68.4
62980;BME280;49075;53.988;27.678;2022-07-29T01:35:55;990.8;;;13.4;68.6
62980;BME280;49075;53.988;27.678;2022-07-29T01:41:00;990.8;;;13.4;68.7
62980;BME280;49075;53.988;27.678;2022-07-29T01:45:57;990.8;;;13.4;68.5
62980;BME280;49075;53.988;27.678;2022-07-29T01:51:01;990.8;;;13.3;68.8
62980;BME280;49075;53.988;27.678;2022-07-29T01:55:55;990.8;;;13.1;68.8
62980;BME280;49075;53.988;27.678;2022-07-29T02:00:56;990.8;;;13;68.7
62980;BME280;49075;53.988;27.678;2022-07-29T02:05:55;990.8;;;12.9;68.7
62980;BME280;49075;53.988;27.678;2022-07-29T02:10:55;990.8;;;12.7;68.9
62980;BME280;49075;53.988;27.678;2022-07-29T02:15:55;990.8;;;12.4;69.7
62980;BME280;49075;53.988;27.678;2022-07-29T02:20:55;990.9;;;12.3;69.8
62980;BME280;49075;53.988;27.678;2022-07-29T02:25:56;990.9;;;12.1;70.9
62980;BME280;49075;53.988;27.678;2022-07-29T02:30:56;991;;;12.1;71.2
62980;BME280;49075;53.988;27.678;2022-07-29T02:35:55;991;;;12;72.3
62980;BME280;49075;53.988;27.678;2022-07-29T02:40:55;991;;;12;72.1
62980;BME280;49075;53.988;27.678;2022-07-29T02:45:55;991;;;12;72.5
62980;BME280;49075;53.988;27.678;2022-07-29T02:50:58;991;;;12.1;72.1
62980;BME280;49075;53.988;27.678;2022-07-29T02:55:56;991;;;12.1;72.2
62980;BME280;49075;53.988;27.678;2022-07-29T03:00:57;991;;;12.2;71.8
62980;BME280;49075;53.988;27.678;2022-07-29T03:05:55;991;;;12.4;71.7
62980;BME280;49075;53.988;27.678;2022-07-29T03:10:55;991;;;12.6;71.1
62980;BME280;49075;53.988;27.678;2022-07-29T03:15:55;991.1;;;12.8;71.1
62980;BME280;49075;53.988;27.678;2022-07-29T03:20:55;991.1;;;13;70.8
62980;BME280;49075;53.988;27.678;2022-07-29T03:25:55;991.2;;;13.1;70.6
62980;BME280;49075;53.988;27.678;2022-07-29T03:30:55;991.2;;;13.3;70.1
62980;BME280;49075;53.988;27.678;2022-07-29T03:35:56;991.2;;;13.5;70.1
62980;BME280;49075;53.988;27.678;2022-07-29T03:40:56;991.2;;;13.7;69.5
62980;BME280;49075;53.988;27.678;2022-07-29T03:45:55;991.2;;;13.9;69.4
62980;BME280;49075;53.988;27.678;2022-07-29T03:50:55;991.2;;;14.2;69.1
62980;BME280;49075;53.988;27.678;2022-07-29T03:55:57;991.3;;;14.5;68.9
62980;BME280;49075;53.988;27.678;2022-07-29T04:00:55;991.3;;;14.8;68.1
62980;BME280;49075;53.988;27.678;2022-07-29T04:06:04;991.3;;;14.9;67.9
62980;BME280;49075;53.988;27.678;2022-07-29T04:10:55;991.3;;;14.9;67.8
62980;BME280;49075;53.988;27.678;2022-07-29T04:15:55;991.3;;;14.9;67.8
62980;BME280;49075;53.988;27.678;2022-07-29T04:20:55;991.4;;;15.1;67.4
62980;BME280;49075;53.988;27.678;2022-07-29T04:25:55;991.4;;;15.2;67.1
62980;BME280;49075;53.988;27.678;2022-07-29T04:30:55;991.5;;;14.9;67.7
62980;BME280;49075;53.988;27.678;2022-07-29T04:35:55;991.5;;;14.8;68
62980;BME280;49075;53.988;27.678;2022-07-29T04:40:55;991.5;;;15;67.8
62980;BME280;49075;53.988;27.678;2022-07-29T04:45:55;991.5;;;15;67.7
62980;BME280;49075;53.988;27.678;2022-07-29T04:50:55;991.5;;;15;67.8
62980;BME280;49075;53.988;27.678;2022-07-29T04:55:55;991.6;;;15.1;67.8
62980;BME280;49075;53.988;27.678;2022-07-29T05:00:55;991.7;;;15.2;67.9
62980;BME280;49075;53.988;27.678;2022-07-29T05:05:55;991.7;;;15.4;67.6
62980;BME280;49075;53.988;27.678;2022-07-29T05:10:55;991.7;;;15.8;66.8
62980;BME280;49075;53.988;27.678;2022-07-29T05:15:55;991.7;;;15.9;66.5
62980;BME280;49075;53.988;27.678;2022-07-29T05:20:55;991.8;;;16.1;66.2
62980;BME280;49075;53.988;27.678;2022-07-29T05:25:55;991.8;;;16.3;65.8
62980;BME280;49075;53.988;27.678;2022-07-29T05:30:55;991.8;;;16.3;65.8
62980;BME280;49075;53.988;27.678;2022-07-29T05:35:55;991.8;;;16.3;66
62980;BME280;49075;53.988;27.678;2022-07-29T05:40:57;991.8;;;16.3;65.8
62980;BME280;49075;53.988;27.678;2022-07-29T05:45:55;991.9;;;16.3;65.9
62980;BME280;49075;53.988;27.678;2022-07-29T05:50:55;991.9;;;16.1;66.4
62980;BME280;49075;53.988;27.678;2022-07-29T05:55:55;992;;;16;66.7
62980;BME280;49075;53.988;27.678;2022-07-29T06:00:55;992.1;;;15.9;67
62980;BME280;49075;53.988;27.678;2022-07-29T06:05:55;992.1;;;15.9;67
62980;BME280;49075;53.988;27.678;2022-07-29T06:10:55;992.1;;;16.1;66.5
62980;BME280;49075;53.988;27.678;2022-07-29T06:15:55;992.1;;;16;66.2
62980;BME280;49075;53.988;27.678;2022-07-29T06:20:55;992.1;;;15.9;66.2
62980;BME280;49075;53.988;27.678;2022-07-29T06:25:55;992.1;;;15.8;66.4
62980;BME280;49075;53.988;27.678;2022-07-29T06:30:55;992.1;;;15.9;66.3
62980;BME280;49075;53.988;27.678;2022-07-29T06:35:55;992.1;;;15.9;66.1
62980;BME280;49075;53.988;27.678;2022-07-29T06:40:55;992.1;;;16.1;65.9
62980;BME280;49075;53.988;27.678;2022-07-29T06:45:55;992.1;;;16.3;65.4
62980;BME280;49075;53.988;27.678;2022-07-29T06:50:55;992;;;16.4;64.9
62980;BME280;49075;53.988;27.678;2022-07-29T06:55:55;992;;;16.8;64.2
62980;BME280;49075;53.988;27.678;2022-07-29T07:00:56;992;;;17.1;63.5
62980;BME280;49075;53.988;27.678;2022-07-29T07:05:56;992.1;;;17.6;62.6
62980;BME280;49075;53.988;27.678;2022-07-29T07:10:55;992.1;;;17.7;61.6
62980;BME280;49075;53.988;27.678;2022-07-29T07:15:55;992.1;;;17.7;61.7
62980;BME280;49075;53.988;27.678;2022-07-29T07:20:56;992.1;;;17.8;61.4
62980;BME280;49075;53.988;27.678;2022-07-29T07:25:55;992.2;;;18.1;60.5
62980;BME280;49075;53.988;27.678;2022-07-29T07:30:55;992.3;;;18.5;58.9
62980;BME280;49075;53.988;27.678;2022-07-29T07:35:55;992.3;;;18.6;59.1
62980;BME280;49075;53.988;27.678;2022-07-29T07:40:56;992.3;;;18.6;58.4
62980;BME280;49075;53.988;27.678;2022-07-29T07:45:55;992.4;;;18.4;59.1
62980;BME280;49075;53.988;27.678;2022-07-29T07:50:55;992.4;;;18.1;58.9
62980;BME280;49075;53.988;27.678;2022-07-29T07:55:55;992.5;;;18.5;57.8
62980;BME280;49075;53.988;27.678;2022-07-29T08:00:55;992.6;;;18.9;56.2
62980;BME280;49075;53.988;27.678;2022-07-29T08:05:58;992.6;;;18.9;56.1
62980;BME280;49075;53.988;27.678;2022-07-29T08:10:55;992.6;;;19.6;54
62980;BME280;49075;53.988;27.678;2022-07-29T08:15:56;992.7;;;20.6;52.7
62980;BME280;49075;53.988;27.678;2022-07-29T08:20:55;992.7;;;20.8;51.9
62980;BME280;49075;53.988;27.678;2022-07-29T08:25:55;992.8;;;20.7;52.3
62980;BME280;49075;53.988;27.678;2022-07-29T08:30:55;992.8;;;20.6;51.9
62980;BME280;49075;53.988;27.678;2022-07-29T08:35:55;992.9;;;20.6;51.6
62980;BME280;49075;53.988;27.678;2022-07-29T08:40:55;992.9;;;20.7;50
62980;BME280;49075;53.988;27.678;2022-07-29T08:45:55;992.9;;;20.6;51.1
62980;BME280;49075;53.988;27.678;2022-07-29T08:50:56;992.9;;;20.3;51
62980;BME280;49075;53.988;27.678;2022-07-29T08:55:55;992.9;;;20.6;51.1
62980;BME280;49075;53.988;27.678;2022-07-29T09:00:55;992.9;;;21.8;48.3
62980;BME280;49075;53.988;27.678;2022-07-29T09:05:55;992.9;;;22.8;46
62980;BME280;49075;53.988;27.678;2022-07-29T09:10:55;992.9;;;22.1;47.3
62980;BME280;49075;53.988;27.678;2022-07-29T09:15:55;992.9;;;23.7;44.1
62980;BME280;49075;53.988;27.678;2022-07-29T09:20:55;992.9;;;26;40.6
62980;BME280;49075;53.988;27.678;2022-07-29T09:25:56;992.9;;;27.7;37.3
62980;BME280;49075;53.988;27.678;2022-07-29T09:30:56;992.9;;;28.7;36
62980;BME280;49075;53.988;27.678;2022-07-29T09:35:59;992.9;;;29.5;34.3
62980;BME280;49075;53.988;27.678;2022-07-29T09:40:56;992.8;;;29.9;34.1
62980;BME280;49075;53.988;27.678;2022-07-29T09:45:55;992.8;;;29.7;33.2
62980;BME280;49075;53.988;27.678;2022-07-29T09:50:55;992.7;;;30.1;33.1
62980;BME280;49075;53.988;27.678;2022-07-29T09:55:55;992.7;;;29.9;32.4
62980;BME280;49075;53.988;27.678;2022-07-29T10:00:55;992.6;;;29.5;33.1
62980;BME280;49075;53.988;27.678;2022-07-29T10:06:04;992.6;;;29.7;32.2
62980;BME280;49075;53.988;27.678;2022-07-29T10:11:05;992.6;;;30;32.2
62980;BME280;49075;53.988;27.678;2022-07-29T10:15:55;992.5;;;30.8;30.6
62980;BME280;49075;53.988;27.678;2022-07-29T10:20:55;992.5;;;31.1;30.3
62980;BME280;49075;53.988;27.678;2022-07-29T10:25:56;992.5;;;30.7;29.4
62980;BME280;49075;53.988;27.678;2022-07-29T10:30:58;992.4;;;29.9;30.4
62980;BME280;49075;53.988;27.678;2022-07-29T10:36:47;992.4;;;29.5;30.1
62980;BME280;49075;53.988;27.678;2022-07-29T10:41:01;992.4;;;30.2;29.6
62980;BME280;49075;53.988;27.678;2022-07-29T10:45:56;992.4;;;30.3;28.7
62980;BME280;49075;53.988;27.678;2022-07-29T10:50:57;992.3;;;30.7;28.9
62980;BME280;49075;53.988;27.678;2022-07-29T10:55:55;992.3;;;30.6;28
62980;BME280;49075;53.988;27.678;2022-07-29T11:00:55;992.3;;;29.8;29.3
62980;BME280;49075;53.988;27.678;2022-07-29T11:05:56;992.3;;;29.4;29.7
62980;BME280;49075;53.988;27.678;2022-07-29T11:11:31;992.3;;;28.8;30.3
62980;BME280;49075;53.988;27.678;2022-07-29T11:15:56;992.3;;;27.9;30.9
62980;BME280;49075;53.988;27.678;2022-07-29T11:20:55;992.3;;;27.9;30.8
62980;BME280;49075;53.988;27.678;2022-07-29T11:26:12;992.2;;;28.1;30.3
62980;BME280;49075;53.988;27.678;2022-07-29T11:30:55;992.2;;;27.3;31.1
62980;BME280;49075;53.988;27.678;2022-07-29T11:36:27;992.2;;;26.3;32.4
62980;BME280;49075;53.988;27.678;2022-07-29T11:41:27;992.2;;;25.8;33.7
62980;BME280;49075;53.988;27.678;2022-07-29T11:45:55;992.3;;;25;34.4
62980;BME280;49075;53.988;27.678;2022-07-29T11:50:55;992.3;;;24.4;35.8
62980;BME280;49075;53.988;27.678;2022-07-29T11:55:55;992.3;;;23.8;37.1
62980;BME280;49075;53.988;27.678;2022-07-29T12:00:55;992.2;;;23.3;37.2
62980;BME280;49075;53.988;27.678;2022-07-29T12:05:55;992.3;;;22.9;38.4
62980;BME280;49075;53.988;27.678;2022-07-29T12:10:55;992.2;;;22.7;38.8
62980;BME280;49075;53.988;27.678;2022-07-29T12:15:56;992.2;;;22.5;38.8
62980;BME280;49075;53.988;27.678;2022-07-29T12:20:56;992.2;;;22.5;40.1
62980;BME280;49075;53.988;27.678;2022-07-29T12:25:55;992.1;;;22.7;38.9
62980;BME280;49075;53.988;27.678;2022-07-29T12:30:55;992.1;;;22.7;38.7
62980;BME280;49075;53.988;27.678;2022-07-29T12:35:56;992;;;22.8;39
62980;BME280;49075;53.988;27.678;2022-07-29T12:40:55;992;;;22.8;38.9
62980;BME280;49075;53.988;27.678;2022-07-29T12:45:56;992;;;22.8;39
62980;BME280;49075;53.988;27.678;2022-07-29T12:50:56;991.9;;;23;38.3
62980;BME280;49075;53.988;27.678;2022-07-29T12:55:56;991.9;;;22.6;38.9
62980;BME280;49075;53.988;27.678;2022-07-29T13:01:12;991.8;;;22.8;38.9
62980;BME280;49075;53.988;27.678;2022-07-29T13:05:55;991.8;;;23;38.2
62980;BME280;49075;53.988;27.678;2022-07-29T13:10:55;991.8;;;23.1;37.1
62980;BME280;49075;53.988;27.678;2022-07-29T13:16:11;991.8;;;23;38.1
62980;BME280;49075;53.988;27.678;2022-07-29T13:20:56;991.8;;;22.9;38.8
62980;BME280;49075;53.988;27.678;2022-07-29T13:25:55;991.8;;;22.9;38.1
62980;BME280;49075;53.988;27.678;2022-07-29T13:30:55;991.8;;;22.7;38.6
62980;BME280;49075;53.988;27.678;2022-07-29T13:35:56;991.8;;;22.7;38.1
62980;BME280;49075;53.988;27.678;2022-07-29T13:40:55;991.7;;;22.8;38.7
62980;BME280;49075;53.988;27.678;2022-07-29T13:45:55;991.7;;;23.2;38.2
62980;BME280;49075;53.988;27.678;2022-07-29T13:50:56;991.7;;;23.4;37.7
62980;BME280;49075;53.988;27.678;2022-07-29T13:55:55;991.6;;;23.4;37.9
62980;BME280;49075;53.988;27.678;2022-07-29T14:00:55;991.6;;;23.5;37.8
62980;BME280;49075;53.988;27.678;2022-07-29T14:05:55;991.6;;;23.7;38.1
62980;BME280;49075;53.988;27.678;2022-07-29T14:10:55;991.7;;;23.8;37.6
62980;BME280;49075;53.988;27.678;2022-07-29T14:15:55;991.6;;;23.7;38.3
62980;BME280;49075;53.988;27.678;2022-07-29T14:20:56;991.6;;;23.5;37.7
62980;BME280;49075;53.988;27.678;2022-07-29T14:25:55;991.7;;;23.1;38.1
62980;BME280;49075;53.988;27.678;2022-07-29T14:30:55;991.7;;;23.1;37.6
62980;BME280;49075;53.988;27.678;2022-07-29T14:35:55;991.6;;;23;37.8
62980;BME280;49075;53.988;27.678;2022-07-29T14:40:55;991.6;;;23;38.7
62980;BME280;49075;53.988;27.678;2022-07-29T14:45:55;991.6;;;22.8;38.6
62980;BME280;49075;53.988;27.678;2022-07-29T14:50:55;991.5;;;22.8;38
62980;BME280;49075;53.988;27.678;2022-07-29T14:55:55;991.5;;;22.9;37.9
62980;BME280;49075;53.988;27.678;2022-07-29T15:00:55;991.5;;;23.1;38.1
62980;BME280;49075;53.988;27.678;2022-07-29T15:05:55;991.5;;;23.5;37.8
62980;BME280;49075;53.988;27.678;2022-07-29T15:10:55;991.5;;;23.5;37.2
62980;BME280;49075;53.988;27.678;2022-07-29T15:15:55;991.4;;;23.4;36.3
62980;BME280;49075;53.988;27.678;2022-07-29T15:20:55;991.4;;;23;36.5
62980;BME280;49075;53.988;27.678;2022-07-29T15:25:55;991.4;;;22.6;37.5
62980;BME280;49075;53.988;27.678;2022-07-29T15:30:55;991.4;;;22.3;38.1
62980;BME280;49075;53.988;27.678;2022-07-29T15:35:55;991.4;;;22;37.7
62980;BME280;49075;53.988;27.678;2022-07-29T15:40:55;991.4;;;22.1;38.1
62980;BME280;49075;53.988;27.678;2022-07-29T15:45:55;991.4;;;22.2;38
62980;BME280;49075;53.988;27.678;2022-07-29T15:50:55;991.4;;;22.3;38
62980;BME280;49075;53.988;27.678;2022-07-29T15:55:55;991.4;;;22.3;38
62980;BME280;49075;53.988;27.678;2022-07-29T16:00:55;991.5;;;22.4;38.2
62980;BME280;49075;53.988;27.678;2022-07-29T16:05:55;991.5;;;22.3;37.6
62980;BME280;49075;53.988;27.678;2022-07-29T16:10:55;991.5;;;22.2;37.7
62980;BME280;49075;53.988;27.678;2022-07-29T16:15:55;991.5;;;22;37.5
62980;BME280;49075;53.988;27.678;2022-07-29T16:20:55;991.5;;;22;38.1
62980;BME280;49075;53.988;27.678;2022-07-29T16:25:55;991.5;;;21.8;38.2
62980;BME280;49075;53.988;27.678;2022-07-29T16:30:55;991.5;;;21.8;38.2
62980;BME280;49075;53.988;27.678;2022-07-29T16:35:55;991.5;;;21.7;38
62980;BME280;49075;53.988;27.678;2022-07-29T16:40:55;991.5;;;21.7;38.1
62980;BME280;49075;53.988;27.678;2022-07-29T16:45:55;991.5;;;21.7;38.3
62980;BME280;49075;53.988;27.678;2022-07-29T16:50:55;991.4;;;21.7;38.6
62980;BME280;49075;53.988;27.678;2022-07-29T16:55:55;991.4;;;21.6;38.6
62980;BME280;49075;53.988;27.678;2022-07-29T17:00:55;991.4;;;21.4;38.8
62980;BME280;49075;53.988;27.678;2022-07-29T17:05:55;991.4;;;21.2;39.2
62980;BME280;49075;53.988;27.678;2022-07-29T17:10:55;991.4;;;21;39.6
62980;BME280;49075;53.988;27.678;2022-07-29T17:15:55;991.4;;;20.6;40
62980;BME280;49075;53.988;27.678;2022-07-29T17:20:55;991.4;;;20.6;40.5
62980;BME280;49075;53.988;27.678;2022-07-29T17:25:55;991.4;;;20.5;40.6
62980;BME280;49075;53.988;27.678;2022-07-29T17:30:55;991.4;;;20.4;41.2
62980;BME280;49075;53.988;27.678;2022-07-29T17:35:55;991.4;;;20.3;41.4
62980;BME280;49075;53.988;27.678;2022-07-29T17:40:55;991.5;;;20;41.9
62980;BME280;49075;53.988;27.678;2022-07-29T17:45:55;991.5;;;19.9;42.4
62980;BME280;49075;53.988;27.678;2022-07-29T17:50:55;991.5;;;19.8;42.8
62980;BME280;49075;53.988;27.678;2022-07-29T17:55:55;991.5;;;19.7;43.3
62980;BME280;49075;53.988;27.678;2022-07-29T18:00:55;991.5;;;19.5;43.6
62980;BME280;49075;53.988;27.678;2022-07-29T18:05:55;991.4;;;19.3;44.5
62980;BME280;49075;53.988;27.678;2022-07-29T18:10:55;991.4;;;19.1;45.2
62980;BME280;49075;53.988;27.678;2022-07-29T18:15:55;991.4;;;18.8;46.5
62980;BME280;49075;53.988;27.678;2022-07-29T18:20:55;991.4;;;18.4;47.1
62980;BME280;49075;53.988;27.678;2022-07-29T18:25:55;991.5;;;18.2;48.1
62980;BME280;49075;53.988;27.678;2022-07-29T18:30:55;991.5;;;18.1;48.4
62980;BME280;49075;53.988;27.678;2022-07-29T18:35:55;991.5;;;18;48.9
62980;BME280;49075;53.988;27.678;2022-07-29T18:40:55;991.5;;;17.8;49.9
62980;BME280;49075;53.988;27.678;2022-07-29T18:45:55;991.6;;;17.6;50
62980;BME280;49075;53.988;27.678;2022-07-29T18:50:55;991.6;;;17.5;50.7
62980;BME280;49075;53.988;27.678;2022-07-29T18:55:55;991.6;;;17.3;51.1
62980;BME280;49075;53.988;27.678;2022-07-29T19:00:55;991.6;;;17.1;51.5
62980;BME280;49075;53.988;27.678;2022-07-29T19:05:55;991.7;;;16.9;52.2
62980;BME280;49075;53.988;27.678;2022-07-29T19:10:55;991.8;;;16.8;52.4
62980;BME280;49075;53.988;27.678;2022-07-29T19:15:55;991.8;;;16.7;53.1
62980;BME280;49075;53.988;27.678;2022-07-29T19:20:55;991.8;;;16.7;53
62980;BME280;49075;53.988;27.678;2022-07-29T19:25:55;991.8;;;16.7;53.4
62980;BME280;49075;53.988;27.678;2022-07-29T19:30:55;991.9;;;16.7;53.2
62980;BME280;49075;53.988;27.678;2022-07-29T19:35:55;991.9;;;16.6;53.8
62980;BME280;49075;53.988;27.678;2022-07-29T19:40:55;991.9;;;16.5;53.6
62980;BME280;49075;53.988;27.678;2022-07-29T19:45:55;992;;;16.5;53.7
62980;BME280;49075;53.988;27.678;2022-07-29T19:50:55;992;;;16.5;54
62980;BME280;49075;53.988;27.678;2022-07-29T19:55:55;992;;;16.5;54.3
62980;BME280;49075;53.988;27.678;2022-07-29T20:00:55;992;;;16.3;54.2
62980;BME280;49075;53.988;27.678;2022-07-29T20:05:55;992;;;16.3;54.8
62980;BME280;49075;53.988;27.678;2022-07-29T20:10:55;992.1;;;16.3;54.7
62980;BME280;49075;53.988;27.678;2022-07-29T20:15:55;992.1;;;16.3;55.2
62980;BME280;49075;53.988;27.678;2022-07-29T20:20:55;992.1;;;16.3;54.9
62980;BME280;49075;53.988;27.678;2022-07-29T20:25:55;992.2;;;16.2;55.3
62980;BME280;49075;53.988;27.678;2022-07-29T20:30:55;992.2;;;16.2;55.5
62980;BME280;49075;53.988;27.678;2022-07-29T20:35:55;992.2;;;16;56.1
62980;BME280;49075;53.988;27.678;2022-07-29T20:40:55;992.2;;;15.9;56.1
62980;BME280;49075;53.988;27.678;2022-07-29T20:45:55;992.3;;;15.8;56.6
62980;BME280;49075;53.988;27.678;2022-07-29T20:50:55;992.3;;;15.8;56.6
62980;BME280;49075;53.988;27.678;2022-07-29T20:55:55;992.3;;;15.8;56.5
62980;BME280;49075;53.988;27.678;2022-07-29T21:00:55;992.3;;;15.8;56.8
62980;BME280;49075;53.988;27.678;2022-07-29T21:05:55;992.3;;;15.7;56.7
62980;BME280;49075;53.988;27.678;2022-07-29T21:10:55;992.4;;;15.6;57.1
62980;BME280;49075;53.988;27.678;2022-07-29T21:15:55;992.5;;;15.5;56.9
62980;BME280;49075;53.988;27.678;2022-07-29T21:20:56;992.4;;;15.5;57.1
62980;BME280;49075;53.988;27.678;2022-07-29T21:25:56;992.4;;;15.5;56.5
62980;BME280;49075;53.988;27.678;2022-07-29T21:30:56;992.5;;;15.3;57.1
62980;BME280;49075;53.988;27.678;2022-07-29T21:35:55;992.5;;;15.3;57.1
62980;BME280;49075;53.988;27.678;2022-07-29T21:40:55;992.5;;;15.2;57.3
62980;BME280;49075;53.988;27.678;2022-07-29T21:45:56;992.5;;;15.2;57.1
62980;BME280;49075;53.988;27.678;2022-07-29T21:50:55;992.5;;;15.1;57.4
62980;BME280;49075;53.988;27.678;2022-07-29T21:55:55;992.5;;;15;57.5
62980;BME280;49075;53.988;27.678;2022-07-29T22:00:55;992.5;;;14.9;57.7
62980;BME280;49075;53.988;27.678;2022-07-29T22:05:55;992.5;;;14.9;57.8
62980;BME280;49075;53.988;27.678;2022-07-29T22:10:55;992.4;;;14.9;57.8
62980;BME280;49075;53.988;27.678;2022-07-29T22:15:55;992.4;;;14.9;57.8
62980;BME280;49075;53.988;27.678;2022-07-29T22:20:55;992.4;;;14.8;57.7
62980;BME280;49075;53.988;27.678;2022-07-29T22:25:55;992.4;;;14.8;57.8
62980;BME280;49075;53.988;27.678;2022-07-29T22:30:55;992.5;;;14.6;57.9
62980;BME280;49075;53.988;27.678;2022-07-29T22:35:55;992.5;;;14.6;58.4
62980;BME280;49075;53.988;27.678;2022-07-29T22:40:55;992.4;;;14.5;58.5
62980;BME280;49075;53.988;27.678;2022-07-29T22:45:55;992.4;;;14.4;59.2
62980;BME280;49075;53.988;27.678;2022-07-29T22:50:55;992.3;;;14.4;59.2
62980;BME280;49075;53.988;27.678;2022-07-29T22:55:55;992.3;;;14.3;59.4
62980;BME280;49075;53.988;27.678;2022-07-29T23:00:55;992.3;;;14.3;59
62980;BME280;49075;53.988;27.678;2022-07-29T23:05:55;992.2;;;14.3;59.2
62980;BME280;49075;53.988;27.678;2022-07-29T23:10:56;992.2;;;14.3;59.1
62980;BME280;49075;53.988;27.678;2022-07-29T23:15:55;992.2;;;14.2;59.3
62980;BME280;49075;53.988;27.678;2022-07-29T23:20:55;992.2;;;14.2;59.3
62980;BME280;49075;53.988;27.678;2022-07-29T23:25:55;992.2;;;14.1;59.7
62980;BME280;49075;53.988;27.678;2022-07-29T23:30:55;992.2;;;14.1;59.6
62980;BME280;49075;53.988;27.678;2022-07-29T23:35:55;992.2;;;14.1;59.7
62980;BME280;49075;53.988;27.678;2022-07-29T23:40:55;992.2;;;14;59.6
62980;BME280;49075;53.988;27.678;2022-07-29T23:45:55;992.2;;;13.9;59.7
62980;BME280;49075;53.988;27.678;2022-07-29T23:50:56;992.2;;;13.9;59.6
62980;BME280;49075;53.988;27.678;2022-07-29T23:55:56;992.2;;;13.9;59.9
